Mobjack, Virginia
Current Conditions -  °F | °C
As of 3:55 PM on Sunday 21 Dec 2014 (Local Time) from KW75 Reporting Station
Clear Clear  
Wind Chill: 35°   Ceiling: Unl
Heat Index: 40°   Visibility: 10mi
Dew Point: 30°   Wind: 6mph
Humidity: 69%   Direction: 100°E
Pressure: 30.28"   Gusts: NA
Location:  37.3805°N, 76.3593°W
Report Text: KW75 212055Z AUTO 10005KT 10SM CLR 04/M01 A3028 RMK AO1 T00421010
Loading
Personal Weather Stations






























Interactive Weather Map New forecast layout! Learn more

10-Day Weather Forecast

Advertisements
Track Severe Weather on mobile